sensor_id;sensor_type;location;lat;lon;timestamp;P1;durP1;ratioP1;P2;durP2;ratioP2
50205;SDS011;36098;48.390;10.856;2022-10-16T00:01:20;3.92;;;2.25;;
50205;SDS011;36098;48.390;10.856;2022-10-16T00:03:47;3.42;;;2.55;;
50205;SDS011;36098;48.390;10.856;2022-10-16T00:06:13;3.60;;;2.38;;
50205;SDS011;36098;48.390;10.856;2022-10-16T00:08:39;2.65;;;2.20;;
50205;SDS011;36098;48.390;10.856;2022-10-16T00:11:07;4.65;;;2.38;;
50205;SDS011;36098;48.390;10.856;2022-10-16T00:13:35;4.57;;;2.28;;
50205;SDS011;36098;48.390;10.856;2022-10-16T00:16:01;5.05;;;2.63;;
50205;SDS011;36098;48.390;10.856;2022-10-16T00:18:28;3.22;;;2.13;;
50205;SDS011;36098;48.390;10.856;2022-10-16T00:20:53;3.47;;;2.30;;
50205;SDS011;36098;48.390;10.856;2022-10-16T00:23:19;2.97;;;2.10;;
50205;SDS011;36098;48.390;10.856;2022-10-16T00:25:54;3.10;;;2.00;;
50205;SDS011;36098;48.390;10.856;2022-10-16T00:28:20;3.47;;;2.25;;
50205;SDS011;36098;48.390;10.856;2022-10-16T00:30:46;3.38;;;2.30;;
50205;SDS011;36098;48.390;10.856;2022-10-16T00:33:11;3.90;;;2.35;;
50205;SDS011;36098;48.390;10.856;2022-10-16T00:35:36;3.08;;;2.20;;
50205;SDS011;36098;48.390;10.856;2022-10-16T00:38:02;3.72;;;2.03;;
50205;SDS011;36098;48.390;10.856;2022-10-16T00:40:27;3.17;;;2.20;;
50205;SDS011;36098;48.390;10.856;2022-10-16T00:42:53;3.47;;;2.10;;
50205;SDS011;36098;48.390;10.856;2022-10-16T00:45:18;2.70;;;1.90;;
50205;SDS011;36098;48.390;10.856;2022-10-16T00:47:44;3.38;;;1.90;;
50205;SDS011;36098;48.390;10.856;2022-10-16T00:52:54;2.70;;;1.92;;
50205;SDS011;36098;48.390;10.856;2022-10-16T00:55:20;3.10;;;1.83;;
50205;SDS011;36098;48.390;10.856;2022-10-16T00:57:46;3.03;;;1.83;;
50205;SDS011;36098;48.390;10.856;2022-10-16T01:00:14;3.90;;;2.17;;
50205;SDS011;36098;48.390;10.856;2022-10-16T01:02:43;3.53;;;1.92;;
50205;SDS011;36098;48.390;10.856;2022-10-16T01:05:08;3.03;;;2.10;;
50205;SDS011;36098;48.390;10.856;2022-10-16T01:10:35;3.42;;;1.90;;
50205;SDS011;36098;48.390;10.856;2022-10-16T01:13:06;2.83;;;2.08;;
50205;SDS011;36098;48.390;10.856;2022-10-16T01:15:40;2.78;;;1.70;;
50205;SDS011;36098;48.390;10.856;2022-10-16T01:18:24;2.47;;;1.80;;
50205;SDS011;36098;48.390;10.856;2022-10-16T01:21:10;3.58;;;2.10;;
50205;SDS011;36098;48.390;10.856;2022-10-16T01:23:51;2.15;;;1.67;;
50205;SDS011;36098;48.390;10.856;2022-10-16T01:35:27;2.72;;;1.85;;
50205;SDS011;36098;48.390;10.856;2022-10-16T01:38:01;2.55;;;1.67;;
50205;SDS011;36098;48.390;10.856;2022-10-16T01:40:32;3.00;;;1.90;;
50205;SDS011;36098;48.390;10.856;2022-10-16T01:43:03;2.67;;;1.90;;
50205;SDS011;36098;48.390;10.856;2022-10-16T01:45:31;2.95;;;1.73;;
50205;SDS011;36098;48.390;10.856;2022-10-16T01:48:00;2.08;;;1.70;;
50205;SDS011;36098;48.390;10.856;2022-10-16T01:50:29;2.92;;;1.65;;
50205;SDS011;36098;48.390;10.856;2022-10-16T01:52:58;2.75;;;1.80;;
50205;SDS011;36098;48.390;10.856;2022-10-16T01:55:25;2.40;;;1.70;;
50205;SDS011;36098;48.390;10.856;2022-10-16T01:57:55;2.45;;;1.77;;
50205;SDS011;36098;48.390;10.856;2022-10-16T02:00:22;3.05;;;1.83;;
50205;SDS011;36098;48.390;10.856;2022-10-16T02:02:49;2.70;;;1.60;;
50205;SDS011;36098;48.390;10.856;2022-10-16T02:08:12;2.55;;;1.70;;
50205;SDS011;36098;48.390;10.856;2022-10-16T02:10:38;2.33;;;1.63;;
50205;SDS011;36098;48.390;10.856;2022-10-16T02:13:09;2.28;;;1.60;;
50205;SDS011;36098;48.390;10.856;2022-10-16T02:15:38;2.97;;;1.77;;
50205;SDS011;36098;48.390;10.856;2022-10-16T02:18:04;2.08;;;1.67;;
50205;SDS011;36098;48.390;10.856;2022-10-16T02:20:32;2.25;;;1.60;;
50205;SDS011;36098;48.390;10.856;2022-10-16T02:23:03;1.92;;;1.40;;
50205;SDS011;36098;48.390;10.856;2022-10-16T02:30:57;2.28;;;1.60;;
50205;SDS011;36098;48.390;10.856;2022-10-16T02:33:24;2.58;;;1.58;;
50205;SDS011;36098;48.390;10.856;2022-10-16T02:35:51;1.85;;;1.40;;
50205;SDS011;36098;48.390;10.856;2022-10-16T02:38:19;2.67;;;1.55;;
50205;SDS011;36098;48.390;10.856;2022-10-16T02:40:46;1.98;;;1.45;;
50205;SDS011;36098;48.390;10.856;2022-10-16T02:43:11;1.67;;;1.30;;
50205;SDS011;36098;48.390;10.856;2022-10-16T02:45:37;2.20;;;1.60;;
50205;SDS011;36098;48.390;10.856;2022-10-16T02:48:02;2.05;;;1.45;;
50205;SDS011;36098;48.390;10.856;2022-10-16T02:50:28;3.65;;;1.50;;
50205;SDS011;36098;48.390;10.856;2022-10-16T02:52:53;2.10;;;1.40;;
50205;SDS011;36098;48.390;10.856;2022-10-16T02:55:18;2.42;;;1.63;;
50205;SDS011;36098;48.390;10.856;2022-10-16T02:57:44;1.85;;;1.40;;
50205;SDS011;36098;48.390;10.856;2022-10-16T03:00:10;2.13;;;1.40;;
50205;SDS011;36098;48.390;10.856;2022-10-16T03:02:38;2.22;;;1.52;;
50205;SDS011;36098;48.390;10.856;2022-10-16T03:05:03;2.08;;;1.20;;
50205;SDS011;36098;48.390;10.856;2022-10-16T03:07:29;2.00;;;1.40;;
50205;SDS011;36098;48.390;10.856;2022-10-16T03:09:54;2.17;;;1.45;;
50205;SDS011;36098;48.390;10.856;2022-10-16T03:12:20;2.28;;;1.48;;
50205;SDS011;36098;48.390;10.856;2022-10-16T03:14:46;2.28;;;1.40;;
50205;SDS011;36098;48.390;10.856;2022-10-16T03:17:11;1.88;;;1.40;;
50205;SDS011;36098;48.390;10.856;2022-10-16T03:19:38;1.88;;;1.25;;
50205;SDS011;36098;48.390;10.856;2022-10-16T03:22:03;2.00;;;1.33;;
50205;SDS011;36098;48.390;10.856;2022-10-16T03:24:28;2.00;;;1.20;;
50205;SDS011;36098;48.390;10.856;2022-10-16T03:26:54;1.80;;;1.50;;
50205;SDS011;36098;48.390;10.856;2022-10-16T03:29:19;1.92;;;1.23;;
50205;SDS011;36098;48.390;10.856;2022-10-16T03:31:44;2.45;;;1.80;;
50205;SDS011;36098;48.390;10.856;2022-10-16T03:34:09;1.75;;;1.20;;
50205;SDS011;36098;48.390;10.856;2022-10-16T03:36:35;2.10;;;1.33;;
50205;SDS011;36098;48.390;10.856;2022-10-16T03:39:00;2.60;;;1.33;;
50205;SDS011;36098;48.390;10.856;2022-10-16T03:41:25;1.70;;;1.25;;
50205;SDS011;36098;48.390;10.856;2022-10-16T03:43:51;1.40;;;1.02;;
50205;SDS011;36098;48.390;10.856;2022-10-16T03:46:16;1.65;;;1.30;;
50205;SDS011;36098;48.390;10.856;2022-10-16T03:48:41;2.38;;;1.40;;
50205;SDS011;36098;48.390;10.856;2022-10-16T03:51:06;1.98;;;1.23;;
50205;SDS011;36098;48.390;10.856;2022-10-16T03:53:32;2.30;;;1.20;;
50205;SDS011;36098;48.390;10.856;2022-10-16T03:55:57;1.95;;;1.20;;
50205;SDS011;36098;48.390;10.856;2022-10-16T03:58:23;1.65;;;1.20;;
50205;SDS011;36098;48.390;10.856;2022-10-16T04:00:49;2.42;;;1.25;;
50205;SDS011;36098;48.390;10.856;2022-10-16T04:03:14;2.05;;;1.35;;
50205;SDS011;36098;48.390;10.856;2022-10-16T04:05:39;2.85;;;1.17;;
50205;SDS011;36098;48.390;10.856;2022-10-16T04:08:05;1.80;;;1.20;;
50205;SDS011;36098;48.390;10.856;2022-10-16T04:10:30;2.28;;;1.33;;
50205;SDS011;36098;48.390;10.856;2022-10-16T04:12:56;1.92;;;1.42;;
50205;SDS011;36098;48.390;10.856;2022-10-16T04:15:24;2.03;;;1.40;;
50205;SDS011;36098;48.390;10.856;2022-10-16T04:17:50;1.88;;;1.10;;
50205;SDS011;36098;48.390;10.856;2022-10-16T04:20:16;2.00;;;1.25;;
50205;SDS011;36098;48.390;10.856;2022-10-16T04:22:41;1.70;;;1.20;;
50205;SDS011;36098;48.390;10.856;2022-10-16T04:25:06;1.88;;;1.30;;
50205;SDS011;36098;48.390;10.856;2022-10-16T04:27:32;1.85;;;1.10;;
50205;SDS011;36098;48.390;10.856;2022-10-16T04:29:58;2.30;;;1.15;;
50205;SDS011;36098;48.390;10.856;2022-10-16T04:32:24;1.80;;;1.30;;
50205;SDS011;36098;48.390;10.856;2022-10-16T04:34:50;1.30;;;1.00;;
50205;SDS011;36098;48.390;10.856;2022-10-16T04:37:15;1.40;;;1.20;;
50205;SDS011;36098;48.390;10.856;2022-10-16T04:39:40;1.85;;;1.00;;
50205;SDS011;36098;48.390;10.856;2022-10-16T04:42:05;1.40;;;1.10;;
50205;SDS011;36098;48.390;10.856;2022-10-16T04:44:31;1.88;;;1.10;;
50205;SDS011;36098;48.390;10.856;2022-10-16T04:46:56;1.85;;;1.13;;
50205;SDS011;36098;48.390;10.856;2022-10-16T04:49:21;1.42;;;1.00;;
50205;SDS011;36098;48.390;10.856;2022-10-16T04:51:46;1.73;;;1.10;;
50205;SDS011;36098;48.390;10.856;2022-10-16T04:54:12;1.25;;;0.95;;
50205;SDS011;36098;48.390;10.856;2022-10-16T04:56:37;1.60;;;1.00;;
50205;SDS011;36098;48.390;10.856;2022-10-16T04:59:10;1.52;;;1.08;;
50205;SDS011;36098;48.390;10.856;2022-10-16T05:01:36;1.85;;;1.30;;
50205;SDS011;36098;48.390;10.856;2022-10-16T05:04:01;1.00;;;0.90;;
50205;SDS011;36098;48.390;10.856;2022-10-16T05:06:27;2.28;;;0.90;;
50205;SDS011;36098;48.390;10.856;2022-10-16T05:08:52;1.50;;;1.02;;
50205;SDS011;36098;48.390;10.856;2022-10-16T05:11:17;1.00;;;0.90;;
50205;SDS011;36098;48.390;10.856;2022-10-16T05:13:43;2.10;;;1.15;;
50205;SDS011;36098;48.390;10.856;2022-10-16T05:16:08;1.50;;;1.10;;
50205;SDS011;36098;48.390;10.856;2022-10-16T05:18:33;2.38;;;1.05;;
50205;SDS011;36098;48.390;10.856;2022-10-16T05:20:59;1.00;;;0.90;;
50205;SDS011;36098;48.390;10.856;2022-10-16T05:23:24;1.52;;;1.10;;
50205;SDS011;36098;48.390;10.856;2022-10-16T05:25:56;1.30;;;1.00;;
50205;SDS011;36098;48.390;10.856;2022-10-16T05:28:23;1.60;;;1.05;;
50205;SDS011;36098;48.390;10.856;2022-10-16T05:30:49;1.88;;;1.08;;
50205;SDS011;36098;48.390;10.856;2022-10-16T05:33:15;2.85;;;0.90;;
50205;SDS011;36098;48.390;10.856;2022-10-16T05:35:40;1.25;;;0.80;;
50205;SDS011;36098;48.390;10.856;2022-10-16T05:38:06;1.52;;;1.00;;
50205;SDS011;36098;48.390;10.856;2022-10-16T05:40:31;1.90;;;1.05;;
50205;SDS011;36098;48.390;10.856;2022-10-16T05:42:56;1.10;;;1.00;;
50205;SDS011;36098;48.390;10.856;2022-10-16T05:45:21;1.20;;;0.98;;
50205;SDS011;36098;48.390;10.856;2022-10-16T05:47:47;1.17;;;0.93;;
50205;SDS011;36098;48.390;10.856;2022-10-16T05:50:12;1.50;;;0.88;;
50205;SDS011;36098;48.390;10.856;2022-10-16T05:52:37;1.45;;;0.90;;
50205;SDS011;36098;48.390;10.856;2022-10-16T05:55:03;2.20;;;1.05;;
50205;SDS011;36098;48.390;10.856;2022-10-16T05:57:29;1.58;;;1.10;;
50205;SDS011;36098;48.390;10.856;2022-10-16T05:59:54;1.33;;;0.95;;
50205;SDS011;36098;48.390;10.856;2022-10-16T06:02:20;1.60;;;0.90;;
50205;SDS011;36098;48.390;10.856;2022-10-16T06:04:46;1.65;;;1.00;;
50205;SDS011;36098;48.390;10.856;2022-10-16T06:07:11;0.95;;;0.70;;
50205;SDS011;36098;48.390;10.856;2022-10-16T06:09:37;1.95;;;1.10;;
50205;SDS011;36098;48.390;10.856;2022-10-16T06:12:02;1.55;;;0.80;;
50205;SDS011;36098;48.390;10.856;2022-10-16T06:14:27;1.48;;;1.05;;
50205;SDS011;36098;48.390;10.856;2022-10-16T06:16:53;1.35;;;1.00;;
50205;SDS011;36098;48.390;10.856;2022-10-16T06:19:18;1.30;;;0.80;;
50205;SDS011;36098;48.390;10.856;2022-10-16T06:21:43;1.30;;;0.90;;
50205;SDS011;36098;48.390;10.856;2022-10-16T06:24:09;3.03;;;1.02;;
50205;SDS011;36098;48.390;10.856;2022-10-16T06:26:34;1.40;;;0.93;;
50205;SDS011;36098;48.390;10.856;2022-10-16T06:29:00;3.40;;;0.80;;
50205;SDS011;36098;48.390;10.856;2022-10-16T06:31:26;4.63;;;1.10;;
50205;SDS011;36098;48.390;10.856;2022-10-16T06:33:54;2.45;;;0.80;;
50205;SDS011;36098;48.390;10.856;2022-10-16T06:36:20;1.20;;;0.93;;
50205;SDS011;36098;48.390;10.856;2022-10-16T06:38:45;1.20;;;0.90;;
50205;SDS011;36098;48.390;10.856;2022-10-16T06:41:12;2.22;;;0.90;;
50205;SDS011;36098;48.390;10.856;2022-10-16T06:43:39;1.30;;;0.95;;
50205;SDS011;36098;48.390;10.856;2022-10-16T06:46:05;4.13;;;1.25;;
50205;SDS011;36098;48.390;10.856;2022-10-16T06:48:35;4.03;;;1.13;;
50205;SDS011;36098;48.390;10.856;2022-10-16T06:51:08;2.60;;;1.05;;
50205;SDS011;36098;48.390;10.856;2022-10-16T06:53:42;4.50;;;0.98;;
50205;SDS011;36098;48.390;10.856;2022-10-16T06:56:18;3.92;;;1.20;;
50205;SDS011;36098;48.390;10.856;2022-10-16T06:58:44;6.97;;;1.40;;
50205;SDS011;36098;48.390;10.856;2022-10-16T07:01:10;5.00;;;1.10;;
50205;SDS011;36098;48.390;10.856;2022-10-16T07:03:37;3.47;;;1.13;;
50205;SDS011;36098;48.390;10.856;2022-10-16T07:06:04;3.92;;;1.17;;
50205;SDS011;36098;48.390;10.856;2022-10-16T07:08:33;7.35;;;1.80;;
50205;SDS011;36098;48.390;10.856;2022-10-16T07:11:00;5.10;;;1.40;;
50205;SDS011;36098;48.390;10.856;2022-10-16T07:13:27;6.85;;;1.45;;
50205;SDS011;36098;48.390;10.856;2022-10-16T07:15:53;5.93;;;1.50;;
50205;SDS011;36098;48.390;10.856;2022-10-16T07:18:18;5.30;;;1.42;;
50205;SDS011;36098;48.390;10.856;2022-10-16T07:20:44;6.35;;;1.40;;
50205;SDS011;36098;48.390;10.856;2022-10-16T07:23:09;8.13;;;1.67;;
50205;SDS011;36098;48.390;10.856;2022-10-16T07:25:34;5.07;;;1.33;;
50205;SDS011;36098;48.390;10.856;2022-10-16T07:28:00;3.80;;;1.30;;
50205;SDS011;36098;48.390;10.856;2022-10-16T07:30:25;4.95;;;1.40;;
50205;SDS011;36098;48.390;10.856;2022-10-16T07:32:50;2.63;;;1.30;;
50205;SDS011;36098;48.390;10.856;2022-10-16T07:35:16;4.93;;;1.50;;
50205;SDS011;36098;48.390;10.856;2022-10-16T07:37:44;2.95;;;1.50;;
50205;SDS011;36098;48.390;10.856;2022-10-16T07:40:10;4.95;;;1.60;;
50205;SDS011;36098;48.390;10.856;2022-10-16T07:42:35;2.42;;;1.13;;
50205;SDS011;36098;48.390;10.856;2022-10-16T07:45:01;4.70;;;1.23;;
50205;SDS011;36098;48.390;10.856;2022-10-16T07:47:26;1.58;;;0.93;;
50205;SDS011;36098;48.390;10.856;2022-10-16T07:49:51;10.55;;;1.52;;
50205;SDS011;36098;48.390;10.856;2022-10-16T07:52:17;3.83;;;1.30;;
50205;SDS011;36098;48.390;10.856;2022-10-16T07:54:42;4.30;;;1.20;;
50205;SDS011;36098;48.390;10.856;2022-10-16T07:57:07;2.72;;;1.25;;
50205;SDS011;36098;48.390;10.856;2022-10-16T07:59:33;3.05;;;1.48;;
50205;SDS011;36098;48.390;10.856;2022-10-16T08:01:58;3.35;;;1.15;;
50205;SDS011;36098;48.390;10.856;2022-10-16T08:04:23;2.85;;;1.30;;
50205;SDS011;36098;48.390;10.856;2022-10-16T08:06:49;3.22;;;1.20;;
50205;SDS011;36098;48.390;10.856;2022-10-16T08:09:14;5.85;;;1.30;;
50205;SDS011;36098;48.390;10.856;2022-10-16T08:11:40;2.72;;;1.27;;
50205;SDS011;36098;48.390;10.856;2022-10-16T08:14:05;1.80;;;1.17;;
50205;SDS011;36098;48.390;10.856;2022-10-16T08:16:30;5.32;;;1.73;;
50205;SDS011;36098;48.390;10.856;2022-10-16T08:18:56;5.25;;;1.38;;
50205;SDS011;36098;48.390;10.856;2022-10-16T08:21:23;3.50;;;1.08;;
50205;SDS011;36098;48.390;10.856;2022-10-16T08:23:49;5.72;;;1.20;;
50205;SDS011;36098;48.390;10.856;2022-10-16T08:26:15;8.32;;;1.55;;
50205;SDS011;36098;48.390;10.856;2022-10-16T08:28:40;3.78;;;1.30;;
50205;SDS011;36098;48.390;10.856;2022-10-16T08:31:15;2.72;;;1.13;;
50205;SDS011;36098;48.390;10.856;2022-10-16T08:33:41;5.82;;;1.40;;
50205;SDS011;36098;48.390;10.856;2022-10-16T08:36:09;4.88;;;1.25;;
50205;SDS011;36098;48.390;10.856;2022-10-16T08:38:35;2.35;;;0.90;;
50205;SDS011;36098;48.390;10.856;2022-10-16T08:41:04;6.25;;;1.30;;
50205;SDS011;36098;48.390;10.856;2022-10-16T08:43:43;6.53;;;1.30;;
50205;SDS011;36098;48.390;10.856;2022-10-16T08:46:41;5.65;;;1.70;;
50205;SDS011;36098;48.390;10.856;2022-10-16T08:49:11;4.07;;;1.20;;
50205;SDS011;36098;48.390;10.856;2022-10-16T08:51:38;5.95;;;1.55;;
50205;SDS011;36098;48.390;10.856;2022-10-16T08:56:42;2.20;;;1.30;;
50205;SDS011;36098;48.390;10.856;2022-10-16T08:59:09;4.90;;;1.40;;
50205;SDS011;36098;48.390;10.856;2022-10-16T09:01:37;7.97;;;1.23;;
50205;SDS011;36098;48.390;10.856;2022-10-16T09:06:54;5.85;;;1.17;;
50205;SDS011;36098;48.390;10.856;2022-10-16T09:12:12;4.75;;;1.02;;
50205;SDS011;36098;48.390;10.856;2022-10-16T09:14:54;2.85;;;1.17;;
50205;SDS011;36098;48.390;10.856;2022-10-16T09:22:47;2.60;;;1.23;;
50205;SDS011;36098;48.390;10.856;2022-10-16T09:25:17;3.63;;;1.33;;
50205;SDS011;36098;48.390;10.856;2022-10-16T09:27:45;1.85;;;1.00;;
50205;SDS011;36098;48.390;10.856;2022-10-16T09:30:13;3.45;;;1.10;;
50205;SDS011;36098;48.390;10.856;2022-10-16T09:32:41;2.72;;;1.17;;
50205;SDS011;36098;48.390;10.856;2022-10-16T09:35:13;2.50;;;1.20;;
50205;SDS011;36098;48.390;10.856;2022-10-16T09:37:42;1.90;;;1.20;;
50205;SDS011;36098;48.390;10.856;2022-10-16T09:40:12;1.77;;;1.00;;
50205;SDS011;36098;48.390;10.856;2022-10-16T09:42:51;5.57;;;1.02;;
50205;SDS011;36098;48.390;10.856;2022-10-16T09:45:22;7.70;;;1.10;;
50205;SDS011;36098;48.390;10.856;2022-10-16T09:47:48;1.95;;;1.00;;
50205;SDS011;36098;48.390;10.856;2022-10-16T09:50:24;4.03;;;1.17;;
50205;SDS011;36098;48.390;10.856;2022-10-16T09:53:02;3.40;;;0.90;;
50205;SDS011;36098;48.390;10.856;2022-10-16T09:55:29;3.40;;;1.10;;
50205;SDS011;36098;48.390;10.856;2022-10-16T09:57:54;2.42;;;1.00;;
50205;SDS011;36098;48.390;10.856;2022-10-16T10:00:21;6.72;;;0.93;;
50205;SDS011;36098;48.390;10.856;2022-10-16T10:02:47;9.18;;;1.10;;
50205;SDS011;36098;48.390;10.856;2022-10-16T10:05:17;6.57;;;1.30;;
50205;SDS011;36098;48.390;10.856;2022-10-16T10:07:46;5.53;;;1.10;;
50205;SDS011;36098;48.390;10.856;2022-10-16T10:10:27;4.68;;;1.00;;
50205;SDS011;36098;48.390;10.856;2022-10-16T10:12:54;1.05;;;0.80;;
50205;SDS011;36098;48.390;10.856;2022-10-16T10:15:20;1.98;;;0.70;;
50205;SDS011;36098;48.390;10.856;2022-10-16T10:17:50;3.22;;;0.90;;
50205;SDS011;36098;48.390;10.856;2022-10-16T10:20:30;2.08;;;0.82;;
50205;SDS011;36098;48.390;10.856;2022-10-16T10:22:59;2.63;;;1.25;;
50205;SDS011;36098;48.390;10.856;2022-10-16T10:31:14;4.10;;;0.93;;
50205;SDS011;36098;48.390;10.856;2022-10-16T10:33:51;2.88;;;1.10;;
50205;SDS011;36098;48.390;10.856;2022-10-16T10:36:38;4.22;;;0.82;;
50205;SDS011;36098;48.390;10.856;2022-10-16T10:39:25;2.28;;;0.95;;
50205;SDS011;36098;48.390;10.856;2022-10-16T10:45:38;2.05;;;0.70;;
50205;SDS011;36098;48.390;10.856;2022-10-16T10:48:21;2.90;;;0.90;;
50205;SDS011;36098;48.390;10.856;2022-10-16T10:51:08;5.97;;;1.00;;
50205;SDS011;36098;48.390;10.856;2022-10-16T10:53:46;8.02;;;1.00;;
50205;SDS011;36098;48.390;10.856;2022-10-16T10:56:42;6.07;;;1.10;;
50205;SDS011;36098;48.390;10.856;2022-10-16T10:59:19;8.50;;;1.30;;
50205;SDS011;36098;48.390;10.856;2022-10-16T11:01:58;5.05;;;1.17;;
50205;SDS011;36098;48.390;10.856;2022-10-16T11:07:05;5.15;;;1.10;;
50205;SDS011;36098;48.390;10.856;2022-10-16T11:09:36;2.63;;;1.20;;
50205;SDS011;36098;48.390;10.856;2022-10-16T11:12:11;7.85;;;0.90;;
50205;SDS011;36098;48.390;10.856;2022-10-16T11:17:38;4.22;;;0.93;;
50205;SDS011;36098;48.390;10.856;2022-10-16T11:20:26;7.72;;;1.00;;
50205;SDS011;36098;48.390;10.856;2022-10-16T11:25:27;3.17;;;1.00;;
50205;SDS011;36098;48.390;10.856;2022-10-16T11:30:26;2.53;;;0.93;;
50205;SDS011;36098;48.390;10.856;2022-10-16T11:36:03;2.30;;;1.00;;
50205;SDS011;36098;48.390;10.856;2022-10-16T11:38:41;1.67;;;0.63;;
50205;SDS011;36098;48.390;10.856;2022-10-16T11:41:23;3.05;;;0.90;;
50205;SDS011;36098;48.390;10.856;2022-10-16T11:44:03;2.03;;;0.70;;
50205;SDS011;36098;48.390;10.856;2022-10-16T11:46:38;2.33;;;1.00;;
50205;SDS011;36098;48.390;10.856;2022-10-16T11:49:13;4.95;;;1.10;;
50205;SDS011;36098;48.390;10.856;2022-10-16T11:51:48;2.95;;;0.80;;
50205;SDS011;36098;48.390;10.856;2022-10-16T11:54:28;2.65;;;0.80;;
50205;SDS011;36098;48.390;10.856;2022-10-16T11:56:58;2.30;;;0.80;;
50205;SDS011;36098;48.390;10.856;2022-10-16T12:04:33;2.42;;;1.10;;
50205;SDS011;36098;48.390;10.856;2022-10-16T12:07:04;1.95;;;0.98;;
50205;SDS011;36098;48.390;10.856;2022-10-16T12:09:34;4.47;;;0.88;;
50205;SDS011;36098;48.390;10.856;2022-10-16T12:12:03;3.47;;;1.20;;
50205;SDS011;36098;48.390;10.856;2022-10-16T12:17:02;2.70;;;0.90;;
50205;SDS011;36098;48.390;10.856;2022-10-16T12:19:56;3.70;;;1.00;;
50205;SDS011;36098;48.390;10.856;2022-10-16T12:22:22;3.25;;;0.85;;
50205;SDS011;36098;48.390;10.856;2022-10-16T12:24:50;3.40;;;0.90;;
50205;SDS011;36098;48.390;10.856;2022-10-16T12:27:24;1.58;;;0.85;;
50205;SDS011;36098;48.390;10.856;2022-10-16T12:29:54;3.65;;;0.90;;
50205;SDS011;36098;48.390;10.856;2022-10-16T12:35:00;2.03;;;1.00;;
50205;SDS011;36098;48.390;10.856;2022-10-16T12:37:32;2.50;;;0.93;;
50205;SDS011;36098;48.390;10.856;2022-10-16T12:39:59;3.70;;;0.70;;
50205;SDS011;36098;48.390;10.856;2022-10-16T12:42:37;3.25;;;0.80;;
50205;SDS011;36098;48.390;10.856;2022-10-16T12:45:13;2.65;;;0.90;;
50205;SDS011;36098;48.390;10.856;2022-10-16T12:47:56;1.45;;;0.70;;
50205;SDS011;36098;48.390;10.856;2022-10-16T12:50:23;1.33;;;0.70;;
50205;SDS011;36098;48.390;10.856;2022-10-16T12:52:55;3.22;;;0.93;;
50205;SDS011;36098;48.390;10.856;2022-10-16T12:55:21;1.48;;;0.70;;
50205;SDS011;36098;48.390;10.856;2022-10-16T13:00:44;0.98;;;0.70;;
50205;SDS011;36098;48.390;10.856;2022-10-16T13:09:02;3.80;;;0.75;;
50205;SDS011;36098;48.390;10.856;2022-10-16T13:26:01;1.15;;;0.60;;
50205;SDS011;36098;48.390;10.856;2022-10-16T13:28:48;1.70;;;0.93;;
50205;SDS011;36098;48.390;10.856;2022-10-16T13:31:15;1.30;;;0.70;;
50205;SDS011;36098;48.390;10.856;2022-10-16T13:33:48;1.38;;;0.55;;
50205;SDS011;36098;48.390;10.856;2022-10-16T13:36:23;1.35;;;0.77;;
50205;SDS011;36098;48.390;10.856;2022-10-16T13:41:57;1.70;;;0.80;;
50205;SDS011;36098;48.390;10.856;2022-10-16T13:44:23;1.08;;;0.60;;
50205;SDS011;36098;48.390;10.856;2022-10-16T13:46:58;2.00;;;0.70;;
50205;SDS011;36098;48.390;10.856;2022-10-16T13:49:25;1.75;;;0.73;;
50205;SDS011;36098;48.390;10.856;2022-10-16T13:51:57;1.05;;;0.80;;
50205;SDS011;36098;48.390;10.856;2022-10-16T13:54:24;3.40;;;0.70;;
50205;SDS011;36098;48.390;10.856;2022-10-16T13:56:50;0.90;;;0.70;;
50205;SDS011;36098;48.390;10.856;2022-10-16T13:59:23;1.13;;;0.70;;
50205;SDS011;36098;48.390;10.856;2022-10-16T14:01:58;1.08;;;0.70;;
50205;SDS011;36098;48.390;10.856;2022-10-16T14:04:31;1.08;;;0.73;;
50205;SDS011;36098;48.390;10.856;2022-10-16T14:06:57;0.85;;;0.60;;
50205;SDS011;36098;48.390;10.856;2022-10-16T14:09:24;1.92;;;0.75;;
50205;SDS011;36098;48.390;10.856;2022-10-16T14:12:01;0.98;;;0.60;;
50205;SDS011;36098;48.390;10.856;2022-10-16T14:14:48;1.27;;;0.70;;
50205;SDS011;36098;48.390;10.856;2022-10-16T14:17:18;1.45;;;0.70;;
50205;SDS011;36098;48.390;10.856;2022-10-16T14:19:47;0.90;;;0.60;;
50205;SDS011;36098;48.390;10.856;2022-10-16T14:22:21;0.98;;;0.60;;
50205;SDS011;36098;48.390;10.856;2022-10-16T14:24:48;0.82;;;0.60;;
50205;SDS011;36098;48.390;10.856;2022-10-16T14:27:24;2.25;;;0.70;;
50205;SDS011;36098;48.390;10.856;2022-10-16T14:30:01;0.93;;;0.70;;
50205;SDS011;36098;48.390;10.856;2022-10-16T14:32:32;1.90;;;0.60;;
50205;SDS011;36098;48.390;10.856;2022-10-16T14:34:57;0.90;;;0.50;;
50205;SDS011;36098;48.390;10.856;2022-10-16T14:37:23;1.10;;;0.60;;
50205;SDS011;36098;48.390;10.856;2022-10-16T14:39:50;1.25;;;0.80;;
50205;SDS011;36098;48.390;10.856;2022-10-16T14:42:16;1.15;;;0.65;;
50205;SDS011;36098;48.390;10.856;2022-10-16T14:44:44;0.82;;;0.70;;
50205;SDS011;36098;48.390;10.856;2022-10-16T14:47:13;1.20;;;0.77;;
50205;SDS011;36098;48.390;10.856;2022-10-16T14:49:41;0.77;;;0.60;;
50205;SDS011;36098;48.390;10.856;2022-10-16T14:52:15;0.73;;;0.60;;
50205;SDS011;36098;48.390;10.856;2022-10-16T14:54:41;0.90;;;0.70;;
50205;SDS011;36098;48.390;10.856;2022-10-16T14:57:15;0.82;;;0.60;;
50205;SDS011;36098;48.390;10.856;2022-10-16T14:59:42;1.70;;;0.70;;
50205;SDS011;36098;48.390;10.856;2022-10-16T15:07:49;1.98;;;0.70;;
50205;SDS011;36098;48.390;10.856;2022-10-16T15:10:16;3.13;;;0.70;;
50205;SDS011;36098;48.390;10.856;2022-10-16T15:12:42;1.05;;;0.57;;
50205;SDS011;36098;48.390;10.856;2022-10-16T15:15:53;1.88;;;1.00;;
50205;SDS011;36098;48.390;10.856;2022-10-16T15:17:56;4.78;;;1.00;;
50205;SDS011;36098;48.390;10.856;2022-10-16T15:20:25;1.83;;;0.90;;
50205;SDS011;36098;48.390;10.856;2022-10-16T15:22:52;4.45;;;0.88;;
50205;SDS011;36098;48.390;10.856;2022-10-16T15:28:07;1.50;;;1.10;;
50205;SDS011;36098;48.390;10.856;2022-10-16T15:30:34;1.27;;;0.80;;
50205;SDS011;36098;48.390;10.856;2022-10-16T15:33:00;1.40;;;0.80;;
50205;SDS011;36098;48.390;10.856;2022-10-16T15:35:26;1.70;;;1.20;;
50205;SDS011;36098;48.390;10.856;2022-10-16T15:37:51;3.17;;;1.33;;
50205;SDS011;36098;48.390;10.856;2022-10-16T15:40:17;4.88;;;1.60;;
50205;SDS011;36098;48.390;10.856;2022-10-16T15:42:44;4.57;;;1.30;;
50205;SDS011;36098;48.390;10.856;2022-10-16T15:45:10;2.85;;;1.25;;
50205;SDS011;36098;48.390;10.856;2022-10-16T15:47:37;4.05;;;1.50;;
50205;SDS011;36098;48.390;10.856;2022-10-16T15:50:03;5.18;;;2.00;;
50205;SDS011;36098;48.390;10.856;2022-10-16T15:52:29;5.25;;;3.00;;
50205;SDS011;36098;48.390;10.856;2022-10-16T15:54:56;12.82;;;7.72;;
50205;SDS011;36098;48.390;10.856;2022-10-16T15:57:22;9.90;;;5.25;;
50205;SDS011;36098;48.390;10.856;2022-10-16T15:59:48;13.32;;;4.82;;
50205;SDS011;36098;48.390;10.856;2022-10-16T16:02:14;8.13;;;4.13;;
50205;SDS011;36098;48.390;10.856;2022-10-16T16:04:39;12.40;;;3.80;;
50205;SDS011;36098;48.390;10.856;2022-10-16T16:07:04;9.35;;;2.97;;
50205;SDS011;36098;48.390;10.856;2022-10-16T16:09:32;7.25;;;2.90;;
50205;SDS011;36098;48.390;10.856;2022-10-16T16:11:58;4.43;;;2.45;;
50205;SDS011;36098;48.390;10.856;2022-10-16T16:14:25;4.75;;;2.40;;
50205;SDS011;36098;48.390;10.856;2022-10-16T16:16:52;5.75;;;2.88;;
50205;SDS011;36098;48.390;10.856;2022-10-16T16:19:18;13.63;;;8.30;;
50205;SDS011;36098;48.390;10.856;2022-10-16T16:21:45;15.27;;;10.90;;
50205;SDS011;36098;48.390;10.856;2022-10-16T16:24:11;10.38;;;8.27;;
50205;SDS011;36098;48.390;10.856;2022-10-16T16:26:36;13.85;;;8.52;;